sensor_id;sensor_type;location;lat;lon;timestamp;P1;durP1;ratioP1;P2;durP2;ratioP2
33862;SDS011;20158;51.436;-2.742;2023-12-20T00:00:22;10.35;;;2.67;;
33862;SDS011;20158;51.436;-2.742;2023-12-20T00:02:48;7.82;;;2.25;;
33862;SDS011;20158;51.436;-2.742;2023-12-20T00:05:14;7.82;;;2.65;;
33862;SDS011;20158;51.436;-2.742;2023-12-20T00:07:40;11.85;;;2.83;;
33862;SDS011;20158;51.436;-2.742;2023-12-20T00:10:06;9.48;;;2.53;;
33862;SDS011;20158;51.436;-2.742;2023-12-20T00:12:32;8.32;;;2.15;;
33862;SDS011;20158;51.436;-2.742;2023-12-20T00:14:59;7.75;;;2.30;;
33862;SDS011;20158;51.436;-2.742;2023-12-20T00:17:25;9.82;;;2.42;;
33862;SDS011;20158;51.436;-2.742;2023-12-20T00:19:51;10.35;;;2.22;;
33862;SDS011;20158;51.436;-2.742;2023-12-20T00:22:17;8.23;;;2.85;;
33862;SDS011;20158;51.436;-2.742;2023-12-20T00:24:43;7.43;;;2.97;;
33862;SDS011;20158;51.436;-2.742;2023-12-20T00:27:09;13.35;;;2.75;;
33862;SDS011;20158;51.436;-2.742;2023-12-20T00:29:35;13.05;;;3.05;;
33862;SDS011;20158;51.436;-2.742;2023-12-20T00:32:02;10.13;;;2.60;;
33862;SDS011;20158;51.436;-2.742;2023-12-20T00:34:29;11.38;;;2.97;;
33862;SDS011;20158;51.436;-2.742;2023-12-20T00:36:55;7.55;;;2.45;;
33862;SDS011;20158;51.436;-2.742;2023-12-20T00:39:22;10.35;;;3.08;;
33862;SDS011;20158;51.436;-2.742;2023-12-20T00:41:49;13.02;;;2.65;;
33862;SDS011;20158;51.436;-2.742;2023-12-20T00:44:15;9.30;;;2.40;;
33862;SDS011;20158;51.436;-2.742;2023-12-20T00:46:41;7.63;;;2.47;;
33862;SDS011;20158;51.436;-2.742;2023-12-20T00:49:07;9.43;;;2.85;;
33862;SDS011;20158;51.436;-2.742;2023-12-20T00:51:34;10.82;;;2.40;;
33862;SDS011;20158;51.436;-2.742;2023-12-20T00:54:01;10.43;;;2.20;;
33862;SDS011;20158;51.436;-2.742;2023-12-20T00:56:27;9.50;;;2.28;;
33862;SDS011;20158;51.436;-2.742;2023-12-20T00:58:53;11.82;;;2.95;;
33862;SDS011;20158;51.436;-2.742;2023-12-20T01:01:19;11.32;;;2.25;;
33862;SDS011;20158;51.436;-2.742;2023-12-20T01:03:46;7.65;;;2.50;;
33862;SDS011;20158;51.436;-2.742;2023-12-20T01:06:12;7.95;;;2.30;;
33862;SDS011;20158;51.436;-2.742;2023-12-20T01:08:39;8.00;;;2.08;;
33862;SDS011;20158;51.436;-2.742;2023-12-20T01:11:05;11.45;;;2.20;;
33862;SDS011;20158;51.436;-2.742;2023-12-20T01:13:33;5.32;;;2.20;;
33862;SDS011;20158;51.436;-2.742;2023-12-20T01:15:59;7.50;;;2.15;;
33862;SDS011;20158;51.436;-2.742;2023-12-20T01:18:27;8.48;;;3.38;;
33862;SDS011;20158;51.436;-2.742;2023-12-20T01:20:53;11.07;;;3.65;;
33862;SDS011;20158;51.436;-2.742;2023-12-20T01:23:19;8.00;;;1.70;;
33862;SDS011;20158;51.436;-2.742;2023-12-20T01:25:48;10.88;;;2.95;;
33862;SDS011;20158;51.436;-2.742;2023-12-20T01:28:14;7.95;;;2.30;;
33862;SDS011;20158;51.436;-2.742;2023-12-20T01:30:39;9.07;;;2.70;;
33862;SDS011;20158;51.436;-2.742;2023-12-20T01:33:05;9.55;;;2.80;;
33862;SDS011;20158;51.436;-2.742;2023-12-20T01:35:31;11.90;;;3.60;;
33862;SDS011;20158;51.436;-2.742;2023-12-20T01:37:58;11.25;;;2.50;;
33862;SDS011;20158;51.436;-2.742;2023-12-20T01:40:24;9.75;;;2.67;;
33862;SDS011;20158;51.436;-2.742;2023-12-20T01:43:00;10.93;;;2.38;;
33862;SDS011;20158;51.436;-2.742;2023-12-20T01:45:27;10.68;;;2.55;;
33862;SDS011;20158;51.436;-2.742;2023-12-20T01:47:53;10.75;;;3.17;;
33862;SDS011;20158;51.436;-2.742;2023-12-20T01:50:23;10.60;;;3.08;;
33862;SDS011;20158;51.436;-2.742;2023-12-20T01:52:50;8.57;;;3.15;;
33862;SDS011;20158;51.436;-2.742;2023-12-20T01:55:21;10.15;;;2.58;;
33862;SDS011;20158;51.436;-2.742;2023-12-20T01:57:48;14.82;;;3.65;;
33862;SDS011;20158;51.436;-2.742;2023-12-20T02:00:14;12.55;;;2.75;;
33862;SDS011;20158;51.436;-2.742;2023-12-20T02:02:40;9.38;;;2.90;;
33862;SDS011;20158;51.436;-2.742;2023-12-20T02:05:07;6.55;;;3.05;;
33862;SDS011;20158;51.436;-2.742;2023-12-20T02:07:33;15.13;;;3.28;;
33862;SDS011;20158;51.436;-2.742;2023-12-20T02:10:03;8.50;;;2.47;;
33862;SDS011;20158;51.436;-2.742;2023-12-20T02:12:30;6.88;;;2.60;;
33862;SDS011;20158;51.436;-2.742;2023-12-20T02:14:56;8.05;;;2.45;;
33862;SDS011;20158;51.436;-2.742;2023-12-20T02:17:22;9.07;;;2.80;;
33862;SDS011;20158;51.436;-2.742;2023-12-20T02:19:49;7.80;;;2.30;;
33862;SDS011;20158;51.436;-2.742;2023-12-20T02:22:15;13.65;;;2.47;;
33862;SDS011;20158;51.436;-2.742;2023-12-20T02:24:41;8.48;;;2.20;;
33862;SDS011;20158;51.436;-2.742;2023-12-20T02:27:08;9.02;;;2.05;;
33862;SDS011;20158;51.436;-2.742;2023-12-20T02:29:34;7.78;;;3.03;;
33862;SDS011;20158;51.436;-2.742;2023-12-20T02:32:01;10.02;;;3.45;;
33862;SDS011;20158;51.436;-2.742;2023-12-20T02:34:28;7.28;;;2.30;;
33862;SDS011;20158;51.436;-2.742;2023-12-20T02:36:55;6.25;;;2.28;;
33862;SDS011;20158;51.436;-2.742;2023-12-20T02:39:21;10.77;;;2.50;;
33862;SDS011;20158;51.436;-2.742;2023-12-20T02:41:48;7.90;;;2.20;;
33862;SDS011;20158;51.436;-2.742;2023-12-20T02:44:14;13.55;;;2.28;;
33862;SDS011;20158;51.436;-2.742;2023-12-20T02:46:40;9.32;;;2.40;;
33862;SDS011;20158;51.436;-2.742;2023-12-20T02:49:07;11.98;;;2.55;;
33862;SDS011;20158;51.436;-2.742;2023-12-20T02:51:34;10.52;;;1.98;;
33862;SDS011;20158;51.436;-2.742;2023-12-20T02:54:00;8.13;;;2.15;;
33862;SDS011;20158;51.436;-2.742;2023-12-20T02:56:27;9.63;;;2.00;;
33862;SDS011;20158;51.436;-2.742;2023-12-20T02:58:52;8.15;;;2.40;;
33862;SDS011;20158;51.436;-2.742;2023-12-20T03:01:18;7.28;;;2.38;;
33862;SDS011;20158;51.436;-2.742;2023-12-20T03:03:45;7.00;;;1.90;;
33862;SDS011;20158;51.436;-2.742;2023-12-20T03:06:10;10.40;;;2.70;;
33862;SDS011;20158;51.436;-2.742;2023-12-20T03:08:36;11.55;;;2.67;;
33862;SDS011;20158;51.436;-2.742;2023-12-20T03:11:04;10.80;;;2.38;;
33862;SDS011;20158;51.436;-2.742;2023-12-20T03:13:29;8.68;;;2.55;;
33862;SDS011;20158;51.436;-2.742;2023-12-20T03:15:56;7.95;;;2.10;;
33862;SDS011;20158;51.436;-2.742;2023-12-20T03:18:22;9.80;;;2.83;;
33862;SDS011;20158;51.436;-2.742;2023-12-20T03:20:47;8.13;;;3.53;;
33862;SDS011;20158;51.436;-2.742;2023-12-20T03:23:15;7.93;;;2.30;;
33862;SDS011;20158;51.436;-2.742;2023-12-20T03:25:41;16.50;;;2.88;;
33862;SDS011;20158;51.436;-2.742;2023-12-20T03:28:07;11.07;;;3.13;;
33862;SDS011;20158;51.436;-2.742;2023-12-20T03:30:33;10.05;;;3.13;;
33862;SDS011;20158;51.436;-2.742;2023-12-20T03:32:59;10.00;;;3.00;;
33862;SDS011;20158;51.436;-2.742;2023-12-20T03:35:25;9.55;;;2.58;;
33862;SDS011;20158;51.436;-2.742;2023-12-20T03:37:51;8.68;;;2.70;;
33862;SDS011;20158;51.436;-2.742;2023-12-20T03:40:17;12.82;;;3.67;;
33862;SDS011;20158;51.436;-2.742;2023-12-20T03:42:43;9.77;;;2.13;;
33862;SDS011;20158;51.436;-2.742;2023-12-20T03:45:09;6.53;;;2.78;;
33862;SDS011;20158;51.436;-2.742;2023-12-20T03:47:35;12.15;;;2.67;;
33862;SDS011;20158;51.436;-2.742;2023-12-20T03:50:01;11.32;;;2.97;;
33862;SDS011;20158;51.436;-2.742;2023-12-20T03:52:27;9.95;;;3.33;;
33862;SDS011;20158;51.436;-2.742;2023-12-20T03:54:54;8.32;;;2.55;;
33862;SDS011;20158;51.436;-2.742;2023-12-20T03:57:21;13.15;;;3.10;;
33862;SDS011;20158;51.436;-2.742;2023-12-20T03:59:47;9.73;;;2.85;;
33862;SDS011;20158;51.436;-2.742;2023-12-20T04:02:13;15.98;;;3.22;;
33862;SDS011;20158;51.436;-2.742;2023-12-20T04:04:39;8.77;;;3.17;;
33862;SDS011;20158;51.436;-2.742;2023-12-20T04:07:05;12.93;;;2.90;;
33862;SDS011;20158;51.436;-2.742;2023-12-20T04:09:31;15.25;;;3.63;;
33862;SDS011;20158;51.436;-2.742;2023-12-20T04:11:57;11.10;;;3.25;;
33862;SDS011;20158;51.436;-2.742;2023-12-20T04:14:24;10.98;;;3.45;;
33862;SDS011;20158;51.436;-2.742;2023-12-20T04:16:50;8.30;;;3.55;;
33862;SDS011;20158;51.436;-2.742;2023-12-20T04:19:17;11.23;;;2.92;;
33862;SDS011;20158;51.436;-2.742;2023-12-20T04:21:43;11.13;;;2.80;;
33862;SDS011;20158;51.436;-2.742;2023-12-20T04:24:10;13.32;;;2.92;;
33862;SDS011;20158;51.436;-2.742;2023-12-20T04:26:36;12.38;;;2.95;;
33862;SDS011;20158;51.436;-2.742;2023-12-20T04:29:02;14.77;;;2.80;;
33862;SDS011;20158;51.436;-2.742;2023-12-20T04:31:28;9.20;;;2.75;;
33862;SDS011;20158;51.436;-2.742;2023-12-20T04:33:54;11.43;;;2.70;;
33862;SDS011;20158;51.436;-2.742;2023-12-20T04:36:20;10.20;;;2.63;;
33862;SDS011;20158;51.436;-2.742;2023-12-20T04:38:46;6.82;;;2.30;;
33862;SDS011;20158;51.436;-2.742;2023-12-20T04:41:12;9.98;;;2.22;;
33862;SDS011;20158;51.436;-2.742;2023-12-20T04:43:41;12.43;;;2.30;;
33862;SDS011;20158;51.436;-2.742;2023-12-20T04:46:07;10.80;;;2.47;;
33862;SDS011;20158;51.436;-2.742;2023-12-20T04:48:33;11.60;;;2.60;;
33862;SDS011;20158;51.436;-2.742;2023-12-20T04:50:59;7.00;;;1.70;;
33862;SDS011;20158;51.436;-2.742;2023-12-20T04:53:26;10.32;;;2.15;;
33862;SDS011;20158;51.436;-2.742;2023-12-20T04:55:52;8.10;;;2.92;;
33862;SDS011;20158;51.436;-2.742;2023-12-20T04:58:18;8.85;;;2.90;;
33862;SDS011;20158;51.436;-2.742;2023-12-20T05:00:44;14.80;;;3.28;;
33862;SDS011;20158;51.436;-2.742;2023-12-20T05:03:10;7.50;;;2.45;;
33862;SDS011;20158;51.436;-2.742;2023-12-20T05:05:37;12.05;;;2.72;;
33862;SDS011;20158;51.436;-2.742;2023-12-20T05:08:03;9.43;;;2.88;;
33862;SDS011;20158;51.436;-2.742;2023-12-20T05:10:30;8.40;;;2.28;;
33862;SDS011;20158;51.436;-2.742;2023-12-20T05:12:56;10.20;;;2.60;;
33862;SDS011;20158;51.436;-2.742;2023-12-20T05:15:23;13.48;;;3.55;;
33862;SDS011;20158;51.436;-2.742;2023-12-20T05:17:49;12.07;;;2.60;;
33862;SDS011;20158;51.436;-2.742;2023-12-20T05:20:15;12.20;;;3.22;;
33862;SDS011;20158;51.436;-2.742;2023-12-20T05:22:41;12.88;;;3.55;;
33862;SDS011;20158;51.436;-2.742;2023-12-20T05:25:07;10.48;;;2.30;;
33862;SDS011;20158;51.436;-2.742;2023-12-20T05:27:33;9.48;;;2.22;;
33862;SDS011;20158;51.436;-2.742;2023-12-20T05:29:59;8.23;;;3.00;;
33862;SDS011;20158;51.436;-2.742;2023-12-20T05:32:25;11.68;;;2.33;;
33862;SDS011;20158;51.436;-2.742;2023-12-20T05:34:51;8.27;;;2.85;;
33862;SDS011;20158;51.436;-2.742;2023-12-20T05:37:18;13.70;;;3.33;;
33862;SDS011;20158;51.436;-2.742;2023-12-20T05:39:45;10.70;;;2.55;;
33862;SDS011;20158;51.436;-2.742;2023-12-20T05:42:11;12.30;;;3.78;;
33862;SDS011;20158;51.436;-2.742;2023-12-20T05:44:37;13.00;;;2.85;;
33862;SDS011;20158;51.436;-2.742;2023-12-20T05:47:04;6.95;;;2.83;;
33862;SDS011;20158;51.436;-2.742;2023-12-20T05:49:30;12.23;;;2.95;;
33862;SDS011;20158;51.436;-2.742;2023-12-20T05:51:57;8.95;;;2.30;;
33862;SDS011;20158;51.436;-2.742;2023-12-20T05:54:24;7.95;;;2.47;;
33862;SDS011;20158;51.436;-2.742;2023-12-20T05:56:51;10.70;;;2.88;;
33862;SDS011;20158;51.436;-2.742;2023-12-20T05:59:16;9.60;;;2.80;;
33862;SDS011;20158;51.436;-2.742;2023-12-20T06:01:43;13.57;;;3.17;;
33862;SDS011;20158;51.436;-2.742;2023-12-20T06:04:09;13.32;;;3.92;;
33862;SDS011;20158;51.436;-2.742;2023-12-20T06:06:40;12.32;;;2.70;;
33862;SDS011;20158;51.436;-2.742;2023-12-20T06:09:10;7.80;;;2.30;;
33862;SDS011;20158;51.436;-2.742;2023-12-20T06:11:40;7.45;;;2.20;;
33862;SDS011;20158;51.436;-2.742;2023-12-20T06:14:06;10.65;;;3.92;;
33862;SDS011;20158;51.436;-2.742;2023-12-20T06:16:32;9.27;;;2.47;;
33862;SDS011;20158;51.436;-2.742;2023-12-20T06:18:58;9.90;;;2.42;;
33862;SDS011;20158;51.436;-2.742;2023-12-20T06:21:24;8.27;;;1.92;;
33862;SDS011;20158;51.436;-2.742;2023-12-20T06:23:51;7.20;;;1.83;;
33862;SDS011;20158;51.436;-2.742;2023-12-20T06:26:17;6.75;;;1.83;;
33862;SDS011;20158;51.436;-2.742;2023-12-20T06:28:43;10.18;;;2.95;;
33862;SDS011;20158;51.436;-2.742;2023-12-20T06:31:09;11.73;;;1.95;;
33862;SDS011;20158;51.436;-2.742;2023-12-20T06:33:36;8.50;;;2.92;;
33862;SDS011;20158;51.436;-2.742;2023-12-20T06:36:02;5.80;;;2.20;;
33862;SDS011;20158;51.436;-2.742;2023-12-20T06:38:29;10.00;;;3.25;;
33862;SDS011;20158;51.436;-2.742;2023-12-20T06:40:55;8.88;;;2.28;;
33862;SDS011;20158;51.436;-2.742;2023-12-20T06:43:22;9.73;;;2.08;;
33862;SDS011;20158;51.436;-2.742;2023-12-20T06:45:48;7.93;;;2.58;;
33862;SDS011;20158;51.436;-2.742;2023-12-20T06:48:14;9.68;;;2.45;;
33862;SDS011;20158;51.436;-2.742;2023-12-20T06:50:40;9.20;;;1.92;;
33862;SDS011;20158;51.436;-2.742;2023-12-20T06:53:07;9.98;;;2.83;;
33862;SDS011;20158;51.436;-2.742;2023-12-20T06:55:34;11.00;;;2.72;;
33862;SDS011;20158;51.436;-2.742;2023-12-20T06:58:03;16.40;;;3.20;;
33862;SDS011;20158;51.436;-2.742;2023-12-20T07:00:32;14.90;;;3.85;;
33862;SDS011;20158;51.436;-2.742;2023-12-20T07:02:58;10.60;;;2.90;;
33862;SDS011;20158;51.436;-2.742;2023-12-20T07:05:24;11.45;;;4.05;;
33862;SDS011;20158;51.436;-2.742;2023-12-20T07:07:51;11.05;;;3.05;;
33862;SDS011;20158;51.436;-2.742;2023-12-20T07:10:21;16.50;;;2.72;;
33862;SDS011;20158;51.436;-2.742;2023-12-20T07:12:54;12.85;;;3.38;;
33862;SDS011;20158;51.436;-2.742;2023-12-20T07:15:21;9.63;;;2.63;;
33862;SDS011;20158;51.436;-2.742;2023-12-20T07:17:48;10.95;;;3.08;;
33862;SDS011;20158;51.436;-2.742;2023-12-20T07:20:14;13.25;;;4.43;;
33862;SDS011;20158;51.436;-2.742;2023-12-20T07:22:40;11.23;;;3.17;;
33862;SDS011;20158;51.436;-2.742;2023-12-20T07:25:06;8.25;;;2.45;;
33862;SDS011;20158;51.436;-2.742;2023-12-20T07:27:32;9.63;;;3.20;;
33862;SDS011;20158;51.436;-2.742;2023-12-20T07:29:58;15.63;;;3.20;;
33862;SDS011;20158;51.436;-2.742;2023-12-20T07:32:25;8.95;;;2.53;;
33862;SDS011;20158;51.436;-2.742;2023-12-20T07:34:51;14.57;;;2.95;;
33862;SDS011;20158;51.436;-2.742;2023-12-20T07:37:17;10.00;;;3.85;;
33862;SDS011;20158;51.436;-2.742;2023-12-20T07:39:43;11.45;;;2.85;;
33862;SDS011;20158;51.436;-2.742;2023-12-20T07:42:09;11.85;;;2.35;;
33862;SDS011;20158;51.436;-2.742;2023-12-20T07:44:36;16.23;;;2.50;;
33862;SDS011;20158;51.436;-2.742;2023-12-20T07:47:02;8.15;;;2.10;;
33862;SDS011;20158;51.436;-2.742;2023-12-20T07:49:28;14.15;;;2.40;;
33862;SDS011;20158;51.436;-2.742;2023-12-20T07:51:54;9.35;;;2.33;;
33862;SDS011;20158;51.436;-2.742;2023-12-20T07:54:21;7.78;;;2.40;;
33862;SDS011;20158;51.436;-2.742;2023-12-20T07:56:48;9.63;;;1.92;;
33862;SDS011;20158;51.436;-2.742;2023-12-20T07:59:14;9.10;;;2.42;;
33862;SDS011;20158;51.436;-2.742;2023-12-20T08:01:40;8.90;;;1.90;;
33862;SDS011;20158;51.436;-2.742;2023-12-20T08:04:07;8.02;;;2.33;;
33862;SDS011;20158;51.436;-2.742;2023-12-20T08:06:33;9.80;;;2.00;;
33862;SDS011;20158;51.436;-2.742;2023-12-20T08:08:59;12.02;;;1.70;;
33862;SDS011;20158;51.436;-2.742;2023-12-20T08:11:25;8.60;;;2.22;;
33862;SDS011;20158;51.436;-2.742;2023-12-20T08:13:51;7.50;;;2.10;;
33862;SDS011;20158;51.436;-2.742;2023-12-20T08:16:17;6.38;;;2.17;;
33862;SDS011;20158;51.436;-2.742;2023-12-20T08:18:44;7.82;;;1.80;;
33862;SDS011;20158;51.436;-2.742;2023-12-20T08:21:10;6.18;;;1.70;;
33862;SDS011;20158;51.436;-2.742;2023-12-20T08:23:36;11.60;;;2.38;;
33862;SDS011;20158;51.436;-2.742;2023-12-20T08:26:06;6.32;;;2.08;;
33862;SDS011;20158;51.436;-2.742;2023-12-20T08:28:34;6.72;;;2.08;;
33862;SDS011;20158;51.436;-2.742;2023-12-20T08:31:02;8.52;;;1.85;;
33862;SDS011;20158;51.436;-2.742;2023-12-20T08:33:29;7.47;;;1.55;;
33862;SDS011;20158;51.436;-2.742;2023-12-20T08:35:55;11.25;;;2.22;;
33862;SDS011;20158;51.436;-2.742;2023-12-20T08:38:21;8.95;;;1.75;;
33862;SDS011;20158;51.436;-2.742;2023-12-20T08:40:47;11.05;;;1.88;;
33862;SDS011;20158;51.436;-2.742;2023-12-20T08:43:14;6.35;;;1.83;;
33862;SDS011;20158;51.436;-2.742;2023-12-20T08:45:41;5.38;;;1.70;;
33862;SDS011;20158;51.436;-2.742;2023-12-20T08:48:07;10.00;;;1.92;;
33862;SDS011;20158;51.436;-2.742;2023-12-20T08:50:34;6.78;;;1.85;;
33862;SDS011;20158;51.436;-2.742;2023-12-20T08:53:02;5.88;;;2.00;;
33862;SDS011;20158;51.436;-2.742;2023-12-20T08:55:28;6.47;;;1.58;;
33862;SDS011;20158;51.436;-2.742;2023-12-20T08:57:56;4.53;;;1.60;;
33862;SDS011;20158;51.436;-2.742;2023-12-20T09:00:22;5.38;;;1.60;;
33862;SDS011;20158;51.436;-2.742;2023-12-20T09:02:53;8.55;;;1.50;;
33862;SDS011;20158;51.436;-2.742;2023-12-20T09:05:20;8.73;;;1.80;;
33862;SDS011;20158;51.436;-2.742;2023-12-20T09:07:46;5.95;;;1.77;;
33862;SDS011;20158;51.436;-2.742;2023-12-20T09:10:14;6.72;;;1.90;;
33862;SDS011;20158;51.436;-2.742;2023-12-20T09:12:41;7.82;;;3.40;;
33862;SDS011;20158;51.436;-2.742;2023-12-20T09:15:08;5.10;;;2.03;;
33862;SDS011;20158;51.436;-2.742;2023-12-20T09:17:34;9.13;;;2.00;;
33862;SDS011;20158;51.436;-2.742;2023-12-20T09:20:00;9.15;;;2.35;;
33862;SDS011;20158;51.436;-2.742;2023-12-20T09:22:28;7.95;;;1.63;;
33862;SDS011;20158;51.436;-2.742;2023-12-20T09:24:57;7.55;;;1.73;;
33862;SDS011;20158;51.436;-2.742;2023-12-20T09:27:23;3.95;;;1.80;;
33862;SDS011;20158;51.436;-2.742;2023-12-20T09:29:49;6.60;;;1.58;;
33862;SDS011;20158;51.436;-2.742;2023-12-20T09:32:16;5.68;;;2.17;;
33862;SDS011;20158;51.436;-2.742;2023-12-20T09:34:44;5.57;;;1.58;;
33862;SDS011;20158;51.436;-2.742;2023-12-20T09:37:11;7.28;;;1.88;;
33862;SDS011;20158;51.436;-2.742;2023-12-20T09:39:37;8.60;;;3.28;;
33862;SDS011;20158;51.436;-2.742;2023-12-20T09:42:07;9.48;;;1.98;;
33862;SDS011;20158;51.436;-2.742;2023-12-20T09:44:33;7.30;;;1.90;;
33862;SDS011;20158;51.436;-2.742;2023-12-20T09:47:06;5.45;;;1.80;;
33862;SDS011;20158;51.436;-2.742;2023-12-20T09:49:32;8.90;;;1.92;;
33862;SDS011;20158;51.436;-2.742;2023-12-20T09:51:59;5.25;;;2.25;;
33862;SDS011;20158;51.436;-2.742;2023-12-20T09:54:27;9.38;;;2.65;;
33862;SDS011;20158;51.436;-2.742;2023-12-20T09:56:54;9.73;;;2.20;;
33862;SDS011;20158;51.436;-2.742;2023-12-20T09:59:20;5.55;;;2.03;;
33862;SDS011;20158;51.436;-2.742;2023-12-20T10:01:47;8.38;;;2.30;;
33862;SDS011;20158;51.436;-2.742;2023-12-20T10:04:18;5.15;;;2.85;;
33862;SDS011;20158;51.436;-2.742;2023-12-20T10:06:45;6.68;;;1.85;;
33862;SDS011;20158;51.436;-2.742;2023-12-20T10:09:12;7.38;;;1.55;;
33862;SDS011;20158;51.436;-2.742;2023-12-20T10:11:42;5.05;;;1.75;;
33862;SDS011;20158;51.436;-2.742;2023-12-20T10:14:10;4.60;;;1.15;;
33862;SDS011;20158;51.436;-2.742;2023-12-20T10:16:36;6.85;;;1.80;;
33862;SDS011;20158;51.436;-2.742;2023-12-20T10:19:03;6.63;;;1.42;;
33862;SDS011;20158;51.436;-2.742;2023-12-20T10:21:29;8.57;;;1.48;;
33862;SDS011;20158;51.436;-2.742;2023-12-20T10:23:56;3.63;;;1.13;;
33862;SDS011;20158;51.436;-2.742;2023-12-20T10:26:23;5.40;;;2.03;;
33862;SDS011;20158;51.436;-2.742;2023-12-20T10:28:55;4.60;;;1.38;;
33862;SDS011;20158;51.436;-2.742;2023-12-20T10:36:27;3.90;;;1.77;;
33862;SDS011;20158;51.436;-2.742;2023-12-20T10:38:54;8.25;;;1.92;;
33862;SDS011;20158;51.436;-2.742;2023-12-20T10:41:28;5.88;;;1.67;;
33862;SDS011;20158;51.436;-2.742;2023-12-20T10:44:00;9.27;;;2.13;;
33862;SDS011;20158;51.436;-2.742;2023-12-20T10:46:28;3.90;;;1.65;;
33862;SDS011;20158;51.436;-2.742;2023-12-20T10:48:56;6.68;;;2.08;;
33862;SDS011;20158;51.436;-2.742;2023-12-20T10:51:23;6.95;;;2.08;;
33862;SDS011;20158;51.436;-2.742;2023-12-20T10:53:52;5.88;;;2.75;;
33862;SDS011;20158;51.436;-2.742;2023-12-20T10:56:20;5.65;;;1.95;;
33862;SDS011;20158;51.436;-2.742;2023-12-20T10:58:48;8.88;;;2.55;;
33862;SDS011;20158;51.436;-2.742;2023-12-20T11:01:15;5.45;;;1.85;;
33862;SDS011;20158;51.436;-2.742;2023-12-20T11:03:49;5.60;;;1.83;;
33862;SDS011;20158;51.436;-2.742;2023-12-20T11:09:11;7.47;;;2.17;;
33862;SDS011;20158;51.436;-2.742;2023-12-20T11:14:48;5.18;;;1.67;;
33862;SDS011;20158;51.436;-2.742;2023-12-20T11:17:17;6.03;;;1.48;;
33862;SDS011;20158;51.436;-2.742;2023-12-20T11:22:26;4.28;;;1.30;;
33862;SDS011;20158;51.436;-2.742;2023-12-20T11:24:59;4.80;;;1.40;;
33862;SDS011;20158;51.436;-2.742;2023-12-20T11:27:33;3.30;;;1.40;;
33862;SDS011;20158;51.436;-2.742;2023-12-20T11:30:02;4.82;;;1.25;;
33862;SDS011;20158;51.436;-2.742;2023-12-20T11:32:36;7.13;;;1.47;;
33862;SDS011;20158;51.436;-2.742;2023-12-20T11:42:33;8.38;;;1.80;;
33862;SDS011;20158;51.436;-2.742;2023-12-20T11:45:14;6.13;;;1.42;;
33862;SDS011;20158;51.436;-2.742;2023-12-20T11:47:46;4.45;;;2.00;;
33862;SDS011;20158;51.436;-2.742;2023-12-20T11:50:18;3.42;;;1.45;;
33862;SDS011;20158;51.436;-2.742;2023-12-20T11:52:45;6.13;;;1.10;;
33862;SDS011;20158;51.436;-2.742;2023-12-20T11:55:12;5.53;;;1.10;;
33862;SDS011;20158;51.436;-2.742;2023-12-20T11:57:38;5.00;;;1.45;;
33862;SDS011;20158;51.436;-2.742;2023-12-20T12:00:04;3.13;;;1.13;;
33862;SDS011;20158;51.436;-2.742;2023-12-20T12:02:38;2.58;;;1.20;;
33862;SDS011;20158;51.436;-2.742;2023-12-20T12:05:05;7.40;;;1.77;;
33862;SDS011;20158;51.436;-2.742;2023-12-20T12:07:33;8.30;;;1.25;;
33862;SDS011;20158;51.436;-2.742;2023-12-20T12:09:59;5.18;;;2.45;;
33862;SDS011;20158;51.436;-2.742;2023-12-20T12:12:26;6.15;;;1.50;;
33862;SDS011;20158;51.436;-2.742;2023-12-20T12:14:55;4.90;;;1.52;;
33862;SDS011;20158;51.436;-2.742;2023-12-20T12:17:23;6.75;;;2.28;;
33862;SDS011;20158;51.436;-2.742;2023-12-20T12:19:51;6.60;;;1.52;;
33862;SDS011;20158;51.436;-2.742;2023-12-20T12:22:30;2.72;;;1.13;;
33862;SDS011;20158;51.436;-2.742;2023-12-20T12:25:10;3.63;;;1.30;;
33862;SDS011;20158;51.436;-2.742;2023-12-20T12:27:39;6.05;;;1.45;;
33862;SDS011;20158;51.436;-2.742;2023-12-20T12:30:08;5.97;;;1.35;;
33862;SDS011;20158;51.436;-2.742;2023-12-20T12:32:35;4.03;;;1.80;;
33862;SDS011;20158;51.436;-2.742;2023-12-20T12:35:05;6.78;;;2.80;;
33862;SDS011;20158;51.436;-2.742;2023-12-20T12:37:35;7.63;;;2.28;;
33862;SDS011;20158;51.436;-2.742;2023-12-20T12:40:04;8.70;;;2.10;;
33862;SDS011;20158;51.436;-2.742;2023-12-20T12:42:32;4.40;;;1.40;;
33862;SDS011;20158;51.436;-2.742;2023-12-20T12:44:59;7.78;;;1.42;;
33862;SDS011;20158;51.436;-2.742;2023-12-20T12:47:25;5.72;;;1.52;;
33862;SDS011;20158;51.436;-2.742;2023-12-20T12:49:51;3.78;;;1.35;;
33862;SDS011;20158;51.436;-2.742;2023-12-20T12:52:18;5.75;;;1.13;;
33862;SDS011;20158;51.436;-2.742;2023-12-20T12:54:45;5.00;;;1.88;;
33862;SDS011;20158;51.436;-2.742;2023-12-20T12:57:11;4.45;;;1.30;;
33862;SDS011;20158;51.436;-2.742;2023-12-20T12:59:37;9.35;;;2.75;;
33862;SDS011;20158;51.436;-2.742;2023-12-20T13:02:04;5.93;;;1.40;;
33862;SDS011;20158;51.436;-2.742;2023-12-20T13:04:32;6.18;;;1.70;;
33862;SDS011;20158;51.436;-2.742;2023-12-20T13:06:58;6.28;;;1.45;;
33862;SDS011;20158;51.436;-2.742;2023-12-20T13:09:24;6.40;;;1.70;;
33862;SDS011;20158;51.436;-2.742;2023-12-20T13:11:50;6.03;;;1.33;;
33862;SDS011;20158;51.436;-2.742;2023-12-20T13:14:16;3.88;;;1.30;;
33862;SDS011;20158;51.436;-2.742;2023-12-20T13:16:43;4.53;;;1.23;;
33862;SDS011;20158;51.436;-2.742;2023-12-20T13:19:10;5.18;;;1.40;;
33862;SDS011;20158;51.436;-2.742;2023-12-20T13:21:36;4.85;;;1.70;;
33862;SDS011;20158;51.436;-2.742;2023-12-20T13:24:03;7.22;;;1.52;;
33862;SDS011;20158;51.436;-2.742;2023-12-20T13:26:30;6.57;;;1.75;;
33862;SDS011;20158;51.436;-2.742;2023-12-20T13:29:02;6.25;;;1.20;;
33862;SDS011;20158;51.436;-2.742;2023-12-20T13:31:48;10.07;;;1.92;;
33862;SDS011;20158;51.436;-2.742;2023-12-20T13:34:15;4.45;;;1.50;;
33862;SDS011;20158;51.436;-2.742;2023-12-20T13:36:42;4.45;;;1.30;;
33862;SDS011;20158;51.436;-2.742;2023-12-20T13:39:11;3.80;;;1.25;;
33862;SDS011;20158;51.436;-2.742;2023-12-20T13:41:37;6.15;;;1.80;;
33862;SDS011;20158;51.436;-2.742;2023-12-20T13:44:04;8.10;;;1.67;;
33862;SDS011;20158;51.436;-2.742;2023-12-20T13:46:31;6.45;;;1.73;;
33862;SDS011;20158;51.436;-2.742;2023-12-20T13:48:59;7.45;;;1.50;;
33862;SDS011;20158;51.436;-2.742;2023-12-20T13:51:26;3.95;;;1.88;;
33862;SDS011;20158;51.436;-2.742;2023-12-20T13:53:52;5.85;;;1.45;;
33862;SDS011;20158;51.436;-2.742;2023-12-20T13:56:18;6.22;;;2.22;;
33862;SDS011;20158;51.436;-2.742;2023-12-20T13:58:46;7.93;;;1.80;;
33862;SDS011;20158;51.436;-2.742;2023-12-20T14:01:18;7.00;;;1.75;;
33862;SDS011;20158;51.436;-2.742;2023-12-20T14:03:44;7.53;;;2.20;;
33862;SDS011;20158;51.436;-2.742;2023-12-20T14:06:10;5.63;;;1.73;;
33862;SDS011;20158;51.436;-2.742;2023-12-20T14:08:36;12.20;;;2.38;;
33862;SDS011;20158;51.436;-2.742;2023-12-20T14:11:03;7.95;;;2.30;;
33862;SDS011;20158;51.436;-2.742;2023-12-20T14:13:30;8.25;;;3.10;;
33862;SDS011;20158;51.436;-2.742;2023-12-20T14:15:56;10.23;;;1.85;;
33862;SDS011;20158;51.436;-2.742;2023-12-20T14:18:24;5.93;;;1.60;;
33862;SDS011;20158;51.436;-2.742;2023-12-20T14:20:50;8.35;;;2.58;;
33862;SDS011;20158;51.436;-2.742;2023-12-20T14:23:17;9.05;;;1.98;;
33862;SDS011;20158;51.436;-2.742;2023-12-20T14:25:43;7.90;;;1.55;;
33862;SDS011;20158;51.436;-2.742;2023-12-20T14:28:09;5.68;;;2.03;;
33862;SDS011;20158;51.436;-2.742;2023-12-20T14:30:41;4.13;;;1.35;;
33862;SDS011;20158;51.436;-2.742;2023-12-20T14:33:07;5.00;;;2.35;;
33862;SDS011;20158;51.436;-2.742;2023-12-20T14:35:34;8.23;;;1.80;;
33862;SDS011;20158;51.436;-2.742;2023-12-20T14:38:03;7.93;;;2.05;;
33862;SDS011;20158;51.436;-2.742;2023-12-20T14:40:30;7.65;;;2.08;;
33862;SDS011;20158;51.436;-2.742;2023-12-20T14:42:56;7.70;;;2.15;;
33862;SDS011;20158;51.436;-2.742;2023-12-20T14:45:23;8.93;;;2.67;;
33862;SDS011;20158;51.436;-2.742;2023-12-20T14:47:49;6.88;;;2.35;;
33862;SDS011;20158;51.436;-2.742;2023-12-20T14:50:15;6.43;;;1.88;;